createdAt,value
2022-10-28T00:02:15.632Z,101397.25
2022-10-28T00:07:17.356Z,101408.63
2022-10-28T00:12:18.985Z,101404.25
2022-10-28T00:17:20.658Z,101399.00
2022-10-28T00:22:22.309Z,101395.50
2022-10-28T00:27:23.942Z,101392.00
2022-10-28T00:32:25.583Z,101390.22
2022-10-28T00:37:27.254Z,101379.72
2022-10-28T00:42:28.913Z,101377.09
2022-10-28T00:47:55.983Z,101385.81
2022-10-28T00:53:10.305Z,101382.28
2022-10-28T00:58:11.929Z,101385.75
2022-10-28T01:03:13.584Z,101393.59
2022-10-28T01:08:15.207Z,101382.25
2022-10-28T01:13:32.440Z,101379.66
2022-10-28T01:18:49.813Z,101403.28
2022-10-28T01:24:11.065Z,101415.63
2022-10-28T01:29:25.460Z,101414.78
2022-10-28T01:34:45.413Z,101413.00
2022-10-28T01:39:51.193Z,101411.28
2022-10-28T01:45:03.405Z,101406.88
2022-10-28T01:50:11.355Z,101396.31
2022-10-28T01:55:22.566Z,101386.66
2022-10-28T02:00:24.278Z,101391.91
2022-10-28T02:05:39.420Z,101383.16
2022-10-28T02:10:45.286Z,101379.66
2022-10-28T02:15:49.180Z,101365.63
2022-10-28T02:20:56.865Z,101367.38
2022-10-28T02:26:14.333Z,101367.41
2022-10-28T02:31:25.765Z,101346.38
2022-10-28T02:36:28.794Z,101342.88
2022-10-28T02:41:40.526Z,101321.84
2022-10-28T02:46:43.763Z,101307.84
2022-10-28T02:51:53.591Z,101346.41
2022-10-28T02:56:55.879Z,101330.69
2022-10-28T03:01:57.696Z,101325.41
2022-10-28T03:06:59.491Z,101321.03
2022-10-28T03:12:01.157Z,101324.53
2022-10-28T03:17:02.759Z,101307.88
2022-10-28T03:22:04.359Z,101302.56
2022-10-28T03:27:06.045Z,101304.31
2022-10-28T03:32:07.802Z,101301.63
2022-10-28T03:37:09.592Z,101299.88
2022-10-28T03:42:11.209Z,101299.84
2022-10-28T03:47:12.841Z,101285.81
2022-10-28T03:52:14.486Z,101282.28
2022-10-28T03:57:16.119Z,101280.53
2022-10-28T04:02:17.875Z,101285.78
2022-10-28T04:07:19.650Z,101284.91
2022-10-28T04:12:21.327Z,101291.91
2022-10-28T04:17:22.962Z,101289.28
2022-10-28T04:22:24.597Z,101277.94
2022-10-28T04:27:26.231Z,101282.31
2022-10-28T04:32:27.915Z,101280.56
2022-10-28T04:37:29.566Z,101279.69
2022-10-28T04:42:31.302Z,101272.66
2022-10-28T04:47:32.934Z,101294.63
2022-10-28T04:52:34.581Z,101284.13
2022-10-28T04:57:36.217Z,101278.84
2022-10-28T05:02:39.096Z,101273.56
2022-10-28T05:07:43.150Z,101263.06
2022-10-28T05:12:45.464Z,101257.84
2022-10-28T05:17:47.146Z,101260.50
2022-10-28T05:22:50.258Z,101261.44
2022-10-28T05:27:52.087Z,101261.44
2022-10-28T05:33:01.726Z,101260.59
2022-10-28T05:38:03.769Z,101252.72
2022-10-28T05:43:05.438Z,101251.81
2022-10-28T05:48:07.193Z,101239.56
2022-10-28T05:53:08.834Z,101224.69
2022-10-28T05:58:10.506Z,101222.03
2022-10-28T06:03:12.469Z,101212.41
2022-10-28T06:08:14.200Z,101206.28
2022-10-28T06:13:14.357Z,101203.69
2022-10-28T06:18:18.863Z,101220.34
2022-10-28T06:23:21.452Z,101209.81
2022-10-28T06:28:23.129Z,101201.94
2022-10-28T06:33:25.494Z,101207.19
2022-10-28T06:38:27.399Z,101204.56
2022-10-28T06:43:29.070Z,101200.19
2022-10-28T06:48:32.239Z,101206.31
2022-10-28T06:53:33.937Z,101213.31
2022-10-28T06:58:35.649Z,101221.19
2022-10-28T07:03:37.314Z,101221.19
2022-10-28T07:08:38.977Z,101231.69
2022-10-28T07:13:42.464Z,101242.19
2022-10-28T07:18:45.910Z,101240.44
2022-10-28T07:23:47.555Z,101253.59
2022-10-28T07:28:49.201Z,101257.09
2022-10-28T07:33:54.443Z,101254.47
2022-10-28T07:38:56.144Z,101262.31
2022-10-28T07:43:57.976Z,101258.84
2022-10-28T07:48:59.901Z,101249.19
2022-10-28T07:54:01.544Z,101256.19
2022-10-28T07:59:03.161Z,101251.78
2022-10-28T08:04:04.822Z,101262.28
2022-10-28T08:09:06.460Z,101264.88
2022-10-28T08:14:08.096Z,101264.88
2022-10-28T08:19:10.856Z,101243.78
2022-10-28T08:24:12.540Z,101249.88
2022-10-28T08:29:14.187Z,101242.84
2022-10-28T08:34:15.930Z,101252.41
2022-10-28T08:39:17.582Z,101249.72
2022-10-28T08:44:31.499Z,101248.72
2022-10-28T08:49:34.273Z,101252.84
2022-10-28T08:54:37.215Z,101249.75
2022-10-28T08:59:40.094Z,101249.31
2022-10-28T09:04:42.690Z,101247.09
2022-10-28T09:09:45.058Z,101246.72
2022-10-28T09:14:52.467Z,101243.78
2022-10-28T09:20:00.164Z,101244.28
2022-10-28T09:25:03.170Z,101253.66
2022-10-28T09:30:10.654Z,101252.31
2022-10-28T09:35:14.037Z,101244.09
2022-10-28T09:40:24.199Z,101249.13
2022-10-28T09:45:27.628Z,101250.34
2022-10-28T09:50:31.080Z,101253.97
2022-10-28T09:55:32.967Z,101247.28
2022-10-28T10:00:34.587Z,101246.03
2022-10-28T10:05:39.208Z,101240.91
2022-10-28T10:10:57.591Z,101235.34
2022-10-28T10:16:02.039Z,101228.56
2022-10-28T10:21:03.812Z,101223.81
2022-10-28T10:26:16.050Z,101212.84
2022-10-28T10:31:22.333Z,101218.06
2022-10-28T10:36:28.239Z,101219.94
2022-10-28T10:41:43.253Z,101217.06
2022-10-28T10:46:44.878Z,101214.97
2022-10-28T10:51:53.252Z,101205.06
2022-10-28T10:56:55.492Z,101205.75
2022-10-28T11:01:57.771Z,101189.25
2022-10-28T11:06:59.929Z,101181.53
2022-10-28T11:12:01.723Z,101183.00
2022-10-28T11:17:03.687Z,101184.47
2022-10-28T11:22:23.468Z,101170.69
2022-10-28T11:27:40.302Z,101186.88
2022-10-28T11:33:01.393Z,101180.47
2022-10-28T11:38:18.446Z,101166.94
2022-10-28T11:43:32.839Z,101163.13
2022-10-28T11:49:02.475Z,101158.66
2022-10-28T11:54:28.285Z,101154.72
2022-10-28T12:00:06.837Z,101160.59
2022-10-28T12:05:33.974Z,101161.38
2022-10-28T12:11:00.934Z,101153.75
2022-10-28T12:16:18.362Z,101156.03
2022-10-28T12:21:19.982Z,101148.53
2022-10-28T12:26:36.152Z,101142.03
2022-10-28T12:31:44.785Z,101145.50
2022-10-28T12:36:52.972Z,101146.91
2022-10-28T12:42:16.697Z,101142.88
2022-10-28T12:47:43.403Z,101138.31
2022-10-28T12:53:03.511Z,101126.59
2022-10-28T12:58:28.345Z,101126.50
2022-10-28T13:03:31.099Z,101127.53
2022-10-28T13:08:53.782Z,101133.22
2022-10-28T13:14:20.141Z,101135.66
2022-10-28T13:19:38.340Z,101124.97
2022-10-28T13:24:48.444Z,101112.16
2022-10-28T13:29:55.116Z,101115.97
2022-10-28T13:34:56.871Z,101114.94
2022-10-28T13:39:58.520Z,101119.72
2022-10-28T13:45:01.104Z,101110.03
2022-10-28T13:50:09.565Z,101112.84
2022-10-28T13:55:14.186Z,101108.72
2022-10-28T14:00:18.566Z,101111.91
2022-10-28T14:05:37.598Z,101098.28
2022-10-28T14:10:39.402Z,101110.28
2022-10-28T14:15:41.114Z,101101.19
2022-10-28T14:20:48.795Z,101107.31
2022-10-28T14:25:50.294Z,101099.41
2022-10-28T14:31:11.352Z,101106.91
2022-10-28T14:36:18.918Z,101107.50
2022-10-28T14:41:23.611Z,101100.91
2022-10-28T14:46:37.960Z,101091.72
2022-10-28T14:51:40.163Z,101089.50
2022-10-28T14:56:41.904Z,101085.53
2022-10-28T15:01:56.275Z,101081.50
2022-10-28T15:06:58.069Z,101084.50
2022-10-28T15:12:07.919Z,101089.34
2022-10-28T15:17:20.444Z,101075.72
2022-10-28T15:22:23.989Z,101086.81
2022-10-28T15:27:30.673Z,101088.06
2022-10-28T15:32:34.050Z,101080.47
2022-10-28T15:37:35.700Z,101087.00
2022-10-28T15:42:44.952Z,101081.22
2022-10-28T15:47:46.755Z,101081.53
2022-10-28T15:52:50.098Z,101080.06
2022-10-28T15:57:59.488Z,101086.47
2022-10-28T16:03:05.487Z,101086.75
2022-10-28T16:08:27.141Z,101087.94
2022-10-28T16:13:31.667Z,101083.84
2022-10-28T16:18:35.324Z,101095.50
2022-10-28T16:23:39.087Z,101087.81
2022-10-28T16:28:44.991Z,101084.47
2022-10-28T16:33:47.009Z,101084.69
2022-10-28T16:38:48.614Z,101090.16
2022-10-28T16:43:50.239Z,101100.97
2022-10-28T16:48:51.861Z,101096.69
2022-10-28T16:53:53.478Z,101096.94
2022-10-28T16:58:55.154Z,101100.66
2022-10-28T17:03:56.775Z,101099.88
2022-10-28T17:09:02.967Z,101108.03
2022-10-28T17:14:05.342Z,101102.88
2022-10-28T17:19:06.982Z,101111.81
2022-10-28T17:24:08.646Z,101118.94
2022-10-28T17:29:10.383Z,101121.69
2022-10-28T17:34:12.092Z,101127.94
2022-10-28T17:39:17.736Z,101135.97
2022-10-28T17:44:21.360Z,101142.19
2022-10-28T17:49:22.998Z,101140.56
2022-10-28T17:59:31.180Z,101139.91
2022-10-28T18:04:33.216Z,101148.78
2022-10-28T18:09:35.280Z,101155.94
2022-10-28T18:14:36.924Z,101152.50
2022-10-28T18:19:38.601Z,101160.53
2022-10-28T18:24:40.357Z,101162.41
2022-10-28T18:29:42.007Z,101164.25
2022-10-28T18:34:43.662Z,101174.03
2022-10-28T18:39:45.302Z,101160.81
2022-10-28T18:44:46.987Z,101174.16
2022-10-28T18:49:48.645Z,101169.84
2022-10-28T18:54:50.275Z,101177.81
2022-10-28T19:00:17.488Z,101172.53
2022-10-28T19:05:13.606Z,101190.28
2022-10-28T19:10:15.370Z,101186.78
2022-10-28T19:15:17.043Z,101191.22
2022-10-28T19:20:18.696Z,101201.88
2022-10-28T19:25:20.364Z,101203.56
2022-10-28T19:30:21.994Z,101201.00
